McCook Lake, South Dakota
Current Conditions -  °F | °C
As of 4:52 PM on Thursday 20 Nov 2014 (Local Time) from KSUX Reporting Station
Clear Clear  
Wind Chill: 22°   Ceiling: Unl
Heat Index: 22°   Visibility: 10mi
Dew Point: 12°   Wind: 3mph
Humidity: 66%   Direction: 300°WNW
Pressure: 30.21"   Gusts: NA
Location:  42.532°N, 96.5446°W
Report Text: KSUX 202252Z 30003KT 10SM CLR M06/M11 A3021 RMK AO2 SLP249 T10561111
Loading
Personal Weather Stations






























Interactive Weather Map New forecast layout! Learn more

10-Day Weather Forecast

Advertisements
Track Severe Weather on mobile